Time;durP1;ratioP1;P1;durP2;ratioP2;P2;SDS_P1;SDS_P2;PMS_P1;PMS_P2;Temp;Humidity;BMP_temperature;BMP_pressure;BME280_temperature;BME280_humidity;BME280_pressure;Samples;Min_cycle;Max_cycle;Signal;HPM_P1;HPM_P2
2021/06/16 00:00:37;;;;;;;4.53;1.10;;;;;;;14.53;57.98;101253.91;5068082;28;20048;-68
2021/06/16 00:03:05;;;;;;;4.43;1.83;;;;;;;14.48;57.99;101260.44;5041235;28;20040;-68
2021/06/16 00:05:33;;;;;;;5.75;1.48;;;;;;;14.37;58.08;101250.56;5064639;28;20048;-67
2021/06/16 00:08:00;;;;;;;3.75;1.40;;;;;;;14.39;58.01;101254.78;5042016;28;20048;-66
2021/06/16 00:10:30;;;;;;;3.30;1.50;;;;;;;14.49;57.69;101255.06;5072226;28;20093;-68
2021/06/16 00:12:59;;;;;;;3.17;1.30;;;;;;;14.34;57.86;101258.69;5065588;28;20048;-68
2021/06/16 00:15:32;;;;;;;4.68;1.90;;;;;;;14.12;58.85;101267.16;5064126;28;20606;-67
2021/06/16 00:18:00;;;;;;;5.60;1.55;;;;;;;14.13;58.78;101261.75;5073168;28;20056;-68
2021/06/16 00:20:27;;;;;;;3.88;1.50;;;;;;;14.23;58.19;101263.81;5051795;28;20531;-67
2021/06/16 00:22:55;;;;;;;4.93;1.60;;;;;;;14.34;57.14;101262.19;5083539;28;20503;-67
2021/06/16 00:25:23;;;;;;;5.78;1.35;;;;;;;14.29;57.63;101266.94;5088882;28;20052;-66
2021/06/16 00:27:51;;;;;;;3.33;1.30;;;;;;;14.28;57.39;101267.03;5085780;28;20082;-67
2021/06/16 00:30:19;;;;;;;3.53;1.30;;;;;;;14.16;58.17;101263.38;5087616;28;20104;-68
2021/06/16 00:32:46;;;;;;;3.05;1.23;;;;;;;14.03;58.65;101268.59;5055379;28;20079;-67
2021/06/16 00:35:18;;;;;;;3.80;1.55;;;;;;;14.22;57.96;101272.72;5071877;28;20104;-67
2021/06/16 00:37:49;;;;;;;3.55;1.40;;;;;;;14.08;58.14;101266.50;5075629;28;20048;-66
2021/06/16 00:40:20;;;;;;;5.05;1.80;;;;;;;14.19;57.71;101274.63;5078077;28;20461;-67
2021/06/16 00:42:47;;;;;;;3.47;1.00;;;;;;;14.08;58.45;101271.78;5072341;28;20472;-67
2021/06/16 00:45:15;;;;;;;6.97;1.60;;;;;;;14.06;59.19;101262.25;5078948;28;20461;-65
2021/06/16 00:47:43;;;;;;;4.07;1.40;;;;;;;14.01;58.19;101264.34;5088561;28;20060;-67
2021/06/16 00:50:11;;;;;;;3.30;1.00;;;;;;;14.07;58.21;101259.50;5065850;28;20052;-67
2021/06/16 00:52:40;;;;;;;7.20;1.58;;;;;;;14.03;58.02;101267.75;5086648;28;20598;-67
2021/06/16 00:55:07;;;;;;;3.38;1.33;;;;;;;14.04;58.00;101261.50;5054612;28;20403;-68
2021/06/16 00:57:35;;;;;;;3.38;1.08;;;;;;;14.15;57.79;101259.03;5055053;28;20101;-67
2021/06/16 01:00:11;;;;;;;4.10;1.15;;;;;;;14.11;57.47;101266.31;5067445;28;20048;-67
2021/06/16 01:02:49;;;;;;;3.08;1.15;;;;;;;14.08;57.35;101268.28;5049490;28;20063;-66
2021/06/16 01:05:17;;;;;;;8.23;1.67;;;;;;;14.01;57.91;101272.28;5080875;28;20048;-66
2021/06/16 01:07:47;;;;;;;4.30;1.17;;;;;;;14.03;57.18;101265.94;5066864;28;20522;-67
2021/06/16 01:10:19;;;;;;;4.60;1.13;;;;;;;14.11;57.41;101266.31;5078890;28;20052;-67
2021/06/16 01:12:56;;;;;;;2.88;1.20;;;;;;;14.03;57.25;101268.59;5065530;28;20109;-66
2021/06/16 01:15:26;;;;;;;3.28;1.15;;;;;;;13.88;58.19;101264.25;5072452;28;20130;-66
2021/06/16 01:17:58;;;;;;;4.85;1.17;;;;;;;13.91;58.07;101264.06;5073261;28;20059;-67
2021/06/16 01:20:33;;;;;;;1.50;0.90;;;;;;;13.93;57.57;101273.59;5082967;28;20098;-67
2021/06/16 01:23:14;;;;;;;3.63;1.23;;;;;;;13.94;57.71;101274.47;5070803;28;20083;-66
2021/06/16 01:25:52;;;;;;;2.20;1.20;;;;;;;13.89;57.54;101273.91;5069997;28;20098;-66
2021/06/16 01:28:23;;;;;;;2.75;1.23;;;;;;;13.89;57.42;101265.97;5073393;28;20461;-67
2021/06/16 01:30:50;;;;;;;3.90;1.15;;;;;;;13.74;58.47;101274.88;5080460;28;20052;-66
2021/06/16 01:33:18;;;;;;;5.95;1.10;;;;;;;13.75;58.38;101273.91;5085988;28;20314;-66
2021/06/16 01:35:47;;;;;;;3.63;1.40;;;;;;;13.70;58.25;101271.56;5075995;28;20184;-67
2021/06/16 01:38:16;;;;;;;8.68;1.38;;;;;;;13.68;58.30;101266.34;5082193;28;20041;-67
2021/06/16 01:40:45;;;;;;;2.33;1.20;;;;;;;13.58;58.93;101273.13;5064341;28;20075;-68
2021/06/16 01:43:13;;;;;;;5.50;1.35;;;;;;;13.59;59.63;101277.47;5051072;28;20066;-67
2021/06/16 01:45:41;;;;;;;3.47;1.15;;;;;;;13.57;58.69;101260.88;5078749;28;20048;-66
2021/06/16 01:48:13;;;;;;;2.60;1.00;;;;;;;13.52;59.08;101262.94;5078024;28;20048;-66
2021/06/16 01:50:41;;;;;;;3.38;1.15;;;;;;;13.55;58.82;101267.19;5066570;28;20467;-67
2021/06/16 01:53:09;;;;;;;3.97;1.23;;;;;;;13.54;58.70;101273.41;5062852;28;20036;-66
2021/06/16 01:55:37;;;;;;;4.63;1.38;;;;;;;13.39;59.99;101272.56;5084918;28;20051;-67
2021/06/16 01:58:06;;;;;;;1.77;0.90;;;;;;;13.48;59.48;101274.66;5067728;28;20047;-67
2021/06/16 02:00:37;;;;;;;4.57;1.23;;;;;;;13.43;59.29;101268.78;5073686;28;20105;-67
2021/06/16 02:03:04;;;;;;;5.57;1.80;;;;;;;13.39;59.43;101267.28;5062773;28;20045;-67
2021/06/16 02:05:32;;;;;;;5.25;1.45;;;;;;;13.40;59.59;101269.81;5085429;28;20075;-67
2021/06/16 02:08:17;;;;;;;5.53;1.70;;;;;;;13.29;60.07;101274.06;5069257;28;20333;-67
2021/06/16 02:10:47;;;;;;;5.00;1.77;;;;;;;13.29;60.58;101271.44;5081201;28;20101;-67
2021/06/16 02:13:21;;;;;;;3.60;1.70;;;;;;;13.21;61.29;101273.63;5077973;28;20048;-67
2021/06/16 02:15:54;;;;;;;5.60;1.80;;;;;;;13.10;61.36;101266.31;5069319;28;20128;-65
2021/06/16 02:18:35;;;;;;;3.97;1.50;;;;;;;13.07;60.94;101272.66;5069447;28;20045;-66
2021/06/16 02:21:03;;;;;;;4.30;1.45;;;;;;;13.00;61.27;101275.75;5059172;28;20389;-67
2021/06/16 02:23:30;;;;;;;4.47;1.50;;;;;;;13.02;61.49;101276.53;5071050;28;20116;-67
2021/06/16 02:25:57;;;;;;;5.07;1.90;;;;;;;13.01;61.86;101275.66;5085992;28;20048;-69
2021/06/16 02:28:25;;;;;;;4.15;1.50;;;;;;;13.06;61.03;101265.69;5089093;28;20051;-68
2021/06/16 02:30:53;;;;;;;2.20;1.30;;;;;;;13.12;60.90;101262.66;5056734;28;20284;-67
2021/06/16 02:33:21;;;;;;;4.68;1.50;;;;;;;13.12;61.70;101264.47;5069111;28;20063;-67
2021/06/16 02:35:49;;;;;;;5.38;1.35;;;;;;;13.25;61.06;101269.91;5061607;28;20070;-68
2021/06/16 02:38:20;;;;;;;3.03;1.27;;;;;;;13.21;61.73;101271.00;5083372;28;20048;-67
2021/06/16 02:40:48;;;;;;;3.72;1.40;;;;;;;13.21;61.26;101261.25;5067226;28;20051;-67
2021/06/16 02:43:18;;;;;;;2.75;1.20;;;;;;;13.18;61.41;101262.28;5051772;28;20036;-66
2021/06/16 02:45:46;;;;;;;3.22;1.50;;;;;;;13.26;61.25;101261.88;5059374;28;20110;-67
2021/06/16 02:48:15;;;;;;;3.00;1.35;;;;;;;13.26;60.89;101261.88;5068206;28;20086;-67
2021/06/16 02:50:44;;;;;;;6.75;1.70;;;;;;;13.23;60.79;101259.41;5049145;28;20044;-67
2021/06/16 02:53:16;;;;;;;3.17;1.27;;;;;;;13.20;61.22;101262.22;5067897;28;20067;-66
2021/06/16 02:55:47;;;;;;;4.50;1.40;;;;;;;13.03;61.84;101260.56;5069945;28;20044;-67
2021/06/16 02:58:19;;;;;;;5.07;1.65;;;;;;;13.06;61.59;101257.75;5070766;28;20039;-68
2021/06/16 03:00:52;;;;;;;4.22;1.42;;;;;;;13.04;61.45;101264.91;5081546;28;20055;-68
2021/06/16 03:03:22;;;;;;;6.70;1.95;;;;;;;13.19;61.26;101268.41;5077319;28;20233;-68
2021/06/16 03:05:50;;;;;;;7.35;1.73;;;;;;;13.19;61.38;101271.06;5066626;28;20048;-67
2021/06/16 03:08:20;;;;;;;2.72;1.42;;;;;;;13.12;61.75;101275.88;5064783;28;20048;-67
2021/06/16 03:10:48;;;;;;;6.28;1.25;;;;;;;13.21;61.40;101269.19;5068858;28;20458;-69
2021/06/16 03:13:16;;;;;;;8.73;1.60;;;;;;;13.31;61.37;101275.66;5066206;28;20052;-66
2021/06/16 03:15:46;;;;;;;3.80;1.50;;;;;;;13.26;61.26;101272.44;5058245;28;20083;-67
2021/06/16 03:18:16;;;;;;;6.45;1.77;;;;;;;13.42;60.51;101273.25;5087895;28;20050;-66
2021/06/16 03:20:44;;;;;;;4.40;1.70;;;;;;;13.55;60.00;101269.81;5062768;28;20052;-67
2021/06/16 03:23:13;;;;;;;1.90;1.20;;;;;;;13.63;59.74;101271.06;5064913;28;20056;-68
2021/06/16 03:25:43;;;;;;;4.82;1.35;;;;;;;13.72;58.75;101269.66;5065645;28;20423;-67
2021/06/16 03:28:11;;;;;;;5.85;1.33;;;;;;;13.73;58.97;101273.97;5062903;28;20044;-67
2021/06/16 03:30:39;;;;;;;6.63;1.55;;;;;;;13.82;59.13;101262.81;5050803;28;20052;-68
2021/06/16 03:33:07;;;;;;;3.80;1.35;;;;;;;14.11;57.75;101265.47;5053261;28;20044;-68
2021/06/16 03:35:35;;;;;;;2.95;1.50;;;;;;;14.19;57.86;101276.41;5057632;28;20052;-67
2021/06/16 03:38:03;;;;;;;5.53;1.55;;;;;;;14.33;57.05;101276.38;5068380;28;20056;-67
2021/06/16 03:40:30;;;;;;;5.85;1.23;;;;;;;14.43;57.10;101268.69;5077974;28;20060;-65
2021/06/16 03:42:59;;;;;;;5.95;1.30;;;;;;;14.62;56.64;101271.00;5044443;28;20058;-67
2021/06/16 03:45:27;;;;;;;6.20;1.33;;;;;;;14.69;56.07;101261.72;5067276;28;20147;-67
2021/06/16 03:47:57;;;;;;;4.18;1.52;;;;;;;14.79;56.09;101254.84;5063465;28;20052;-67
2021/06/16 03:50:25;;;;;;;8.52;1.75;;;;;;;14.91;56.01;101261.16;5082479;28;20453;-67
2021/06/16 03:52:54;;;;;;;3.78;1.70;;;;;;;15.06;54.67;101257.47;5068872;28;20048;-67
2021/06/16 03:55:22;;;;;;;7.22;1.92;;;;;;;15.02;54.90;101255.97;5071290;28;20123;-67
2021/06/16 03:57:50;;;;;;;4.95;1.75;;;;;;;14.98;54.92;101256.28;5056892;28;20127;-68
2021/06/16 04:00:19;;;;;;;6.40;1.40;;;;;;;15.13;54.45;101249.91;5059810;28;20056;-68
2021/06/16 04:02:48;;;;;;;5.93;1.23;;;;;;;15.35;53.68;101258.09;5065232;28;20071;-66
2021/06/16 04:05:16;;;;;;;5.43;1.30;;;;;;;15.32;54.23;101255.69;5067370;28;20052;-67
2021/06/16 04:07:51;;;;;;;4.10;1.30;;;;;;;15.44;54.01;101259.28;5078105;28;20098;-67
2021/06/16 04:10:19;;;;;;;6.10;1.23;;;;;;;15.61;53.53;101263.41;5076237;28;20062;-67
2021/06/16 04:12:46;;;;;;;4.72;1.95;;;;;;;15.74;52.83;101258.97;5068531;28;20431;-68
2021/06/16 04:15:16;;;;;;;4.82;1.55;;;;;;;15.82;52.76;101258.44;5075291;28;20518;-68
2021/06/16 04:17:44;;;;;;;5.57;1.73;;;;;;;16.07;52.05;101255.72;5054568;28;20496;-66
2021/06/16 04:20:13;;;;;;;4.88;1.30;;;;;;;15.91;52.53;101258.66;5058440;28;20139;-66
2021/06/16 04:22:40;;;;;;;10.00;2.38;;;;;;;16.10;52.77;101255.50;5064589;28;20461;-67
2021/06/16 04:25:09;;;;;;;3.83;1.13;;;;;;;16.92;50.28;101255.72;5059821;28;20052;-67
2021/06/16 04:27:37;;;;;;;9.35;1.33;;;;;;;17.86;47.54;101258.16;5083521;28;20093;-67
2021/06/16 04:30:07;;;;;;;3.83;1.30;;;;;;;18.50;45.37;101254.78;5066775;28;20067;-67
2021/06/16 04:32:36;;;;;;;11.57;2.45;;;;;;;19.36;43.49;101255.59;5083396;28;20075;-67
2021/06/16 04:35:07;;;;;;;6.55;1.48;;;;;;;19.94;42.40;101245.19;5084711;28;20052;-67
2021/06/16 04:37:35;;;;;;;4.60;1.80;;;;;;;20.81;40.38;101252.56;5070400;28;20052;-68
2021/06/16 04:40:04;;;;;;;5.05;1.70;;;;;;;21.15;39.66;101253.75;5070559;28;20139;-67
2021/06/16 04:42:33;;;;;;;3.90;1.13;;;;;;;22.34;37.46;101257.56;5064328;28;20381;-67
2021/06/16 04:45:00;;;;;;;3.80;1.40;;;;;;;22.92;35.68;101251.78;5065595;28;20081;-69
2021/06/16 04:47:27;;;;;;;7.03;1.20;;;;;;;23.42;34.46;101253.81;5068609;28;20126;-67
2021/06/16 04:49:55;;;;;;;3.80;1.27;;;;;;;23.43;34.30;101258.16;5071347;28;20503;-67
2021/06/16 04:52:22;;;;;;;5.18;2.03;;;;;;;24.25;33.23;101255.88;5064944;28;20055;-67
2021/06/16 04:54:50;;;;;;;2.78;1.08;;;;;;;24.50;32.41;101260.31;5080720;28;20055;-67
2021/06/16 04:57:17;;;;;;;5.18;1.40;;;;;;;25.27;31.60;101251.09;5050207;28;20105;-68
2021/06/16 04:59:45;;;;;;;4.63;1.48;;;;;;;25.99;30.35;101255.44;5073063;28;20048;-67
2021/06/16 05:02:14;;;;;;;6.65;1.20;;;;;;;25.73;30.71;101258.38;5058051;28;20041;-68
2021/06/16 05:04:45;;;;;;;7.40;1.75;;;;;;;26.01;30.44;101258.78;5076345;28;20090;-67
2021/06/16 05:07:12;;;;;;;3.05;1.30;;;;;;;26.44;30.17;101261.13;5071940;28;20519;-67
2021/06/16 05:09:39;;;;;;;6.97;1.30;;;;;;;26.48;29.03;101257.91;5076089;28;20470;-69
2021/06/16 05:12:08;;;;;;;7.15;1.50;;;;;;;26.85;28.79;101253.56;5074671;28;20040;-69
2021/06/16 05:14:35;;;;;;;7.18;1.70;;;;;;;27.26;28.61;101251.34;5075022;28;20099;-70
2021/06/16 05:17:03;;;;;;;6.82;1.55;;;;;;;26.23;29.98;101259.88;5063671;28;20044;-70
2021/06/16 05:19:30;;;;;;;3.83;1.42;;;;;;;28.04;27.73;101253.69;5079043;28;20044;-69
2021/06/16 05:22:13;;;;;;;4.68;1.50;;;;;;;29.69;25.02;101247.09;5087054;28;20052;-70
2021/06/16 05:24:41;;;;;;;6.32;1.30;;;;;;;29.95;24.34;101254.50;5075412;28;20052;-70
2021/06/16 05:27:08;;;;;;;8.38;1.60;;;;;;;29.41;25.15;101251.69;5072885;28;20150;-69
2021/06/16 05:29:36;;;;;;;8.10;1.63;;;;;;;28.85;26.00;101257.06;5086070;28;20097;-67
2021/06/16 05:32:03;;;;;;;5.60;1.23;;;;;;;29.07;25.03;101245.19;5074426;28;20128;-68
2021/06/16 05:34:31;;;;;;;3.13;1.38;;;;;;;28.63;25.25;101248.94;5085270;28;20419;-69
2021/06/16 05:36:58;;;;;;;3.72;1.50;;;;;;;28.42;25.80;101257.09;5078652;28;20579;-69
2021/06/16 05:39:26;;;;;;;4.13;1.08;;;;;;;29.11;24.67;101251.06;5085866;28;20507;-69
2021/06/16 05:41:53;;;;;;;7.18;1.60;;;;;;;28.69;25.63;101248.19;5054527;28;20105;-68
2021/06/16 05:44:21;;;;;;;7.75;1.40;;;;;;;29.68;24.39;101241.88;5087324;28;20056;-69
2021/06/16 05:46:48;;;;;;;3.42;1.30;;;;;;;30.68;22.86;101248.47;5061280;28;20060;-68
2021/06/16 05:49:16;;;;;;;8.40;1.20;;;;;;;30.65;22.66;101254.28;5085228;28;20327;-70
2021/06/16 05:51:43;;;;;;;2.58;1.33;;;;;;;29.98;23.04;101250.53;5073079;28;20078;-69
2021/06/16 05:54:10;;;;;;;4.40;1.65;;;;;;;30.16;22.58;101250.00;5083333;28;20055;-67
2021/06/16 05:56:40;;;;;;;6.22;1.92;;;;;;;30.14;22.95;101249.38;5072577;28;20056;-67
2021/06/16 05:59:08;;;;;;;4.78;1.63;;;;;;;29.35;23.38;101247.06;5078594;28;20056;-67
2021/06/16 06:01:36;;;;;;;4.80;1.30;;;;;;;30.58;22.52;101248.03;5076691;28;20052;-68
2021/06/16 06:04:06;;;;;;;5.97;1.92;;;;;;;31.01;22.26;101253.91;5074868;28;20058;-67
2021/06/16 06:06:35;;;;;;;6.40;1.73;;;;;;;31.40;21.37;101244.09;5076911;28;20437;-68
2021/06/16 06:09:04;;;;;;;8.73;1.80;;;;;;;31.92;21.26;101250.41;5078562;28;20573;-66
2021/06/16 06:11:34;;;;;;;5.13;1.45;;;;;;;33.21;19.74;101246.44;5074538;28;20056;-67
2021/06/16 06:14:02;;;;;;;9.13;2.10;;;;;;;32.32;20.42;101247.50;5068882;28;20053;-67
2021/06/16 06:16:30;;;;;;;4.07;1.48;;;;;;;31.44;21.72;101239.88;5078306;28;20056;-67
2021/06/16 06:18:57;;;;;;;9.35;2.00;;;;;;;31.16;21.98;101243.69;5073358;28;20048;-67
2021/06/16 06:21:31;;;;;;;6.93;1.27;;;;;;;32.10;20.79;101250.53;5072745;28;20462;-67
2021/06/16 06:23:59;;;;;;;6.72;1.38;;;;;;;32.00;20.71;101240.13;5084136;28;20052;-67
2021/06/16 06:26:31;;;;;;;9.73;2.22;;;;;;;30.72;21.91;101255.19;5077675;28;20073;-66
2021/06/16 06:28:59;;;;;;;3.97;2.03;;;;;;;30.92;22.22;101247.03;5088321;28;20105;-68
2021/06/16 06:31:27;;;;;;;4.75;1.40;;;;;;;31.30;20.64;101238.22;5060200;28;20535;-68
2021/06/16 06:33:55;;;;;;;7.13;1.40;;;;;;;31.03;21.27;101246.41;5077243;28;20059;-67
2021/06/16 06:36:23;;;;;;;5.47;1.38;;;;;;;30.92;22.00;101245.13;5073387;28;20047;-67
2021/06/16 06:38:51;;;;;;;3.80;1.45;;;;;;;30.66;22.00;101248.66;5076771;28;20053;-67
2021/06/16 06:41:19;;;;;;;6.93;1.27;;;;;;;31.21;20.87;101253.94;5064640;28;20079;-70
2021/06/16 06:43:46;;;;;;;6.40;1.40;;;;;;;32.57;20.11;101251.16;5087648;28;20052;-67
2021/06/16 06:46:14;;;;;;;5.85;1.65;;;;;;;32.20;19.55;101237.31;5071375;28;20165;-69
2021/06/16 06:48:41;;;;;;;4.47;1.40;;;;;;;31.84;20.44;101246.06;5064485;28;20036;-67
2021/06/16 06:51:09;;;;;;;5.03;1.60;;;;;;;32.09;20.33;101248.03;5069785;28;20048;-69
2021/06/16 06:53:37;;;;;;;8.50;2.30;;;;;;;32.74;19.84;101248.72;5076693;28;20094;-69
2021/06/16 06:56:05;;;;;;;4.88;1.30;;;;;;;32.49;20.00;101243.22;5066325;28;20082;-67
2021/06/16 06:58:32;;;;;;;5.30;1.25;;;;;;;32.62;20.00;101245.03;5079177;28;20073;-67
2021/06/16 07:01:00;;;;;;;3.22;1.35;;;;;;;33.36;19.55;101249.63;5077191;28;20068;-74
2021/06/16 07:03:29;;;;;;;4.90;1.30;;;;;;;32.82;20.07;101247.59;5086276;28;20044;-75
2021/06/16 07:05:56;;;;;;;6.95;2.33;;;;;;;34.10;18.88;101245.03;5068996;28;20147;-67
2021/06/16 07:08:24;;;;;;;4.45;1.30;;;;;;;34.54;18.44;101239.38;5079894;28;20109;-68
2021/06/16 07:10:51;;;;;;;7.38;1.45;;;;;;;34.18;19.15;101236.50;5078462;28;20148;-67
2021/06/16 07:13:18;;;;;;;7.00;1.50;;;;;;;34.35;18.81;101233.09;5080215;28;20055;-68
2021/06/16 07:16:07;;;;;;;6.28;1.63;;;;;;;35.42;18.24;101227.53;5074146;28;20109;-69
2021/06/16 07:18:34;;;;;;;4.90;1.70;;;;;;;34.20;19.50;101231.63;5076904;28;20079;-69
2021/06/16 07:21:03;;;;;;;5.50;2.03;;;;;;;35.20;18.33;101224.59;5066491;28;20689;-68
2021/06/16 07:23:31;;;;;;;4.65;1.90;;;;;;;35.99;17.90;101224.94;5080587;28;20415;-69
2021/06/16 07:25:58;;;;;;;6.25;1.70;;;;;;;36.00;17.23;101226.59;5062376;28;20052;-68
2021/06/16 07:28:26;;;;;;;7.90;1.80;;;;;;;36.62;16.85;101231.31;5059716;28;20147;-69
2021/06/16 07:30:53;;;;;;;6.43;2.10;;;;;;;36.36;16.77;101228.09;5067303;28;20106;-69
2021/06/16 07:33:20;;;;;;;5.93;1.90;;;;;;;36.51;17.34;101225.63;5069308;28;20222;-69
2021/06/16 07:35:51;;;;;;;6.15;1.70;;;;;;;36.36;17.31;101225.34;5084589;28;20048;-70
2021/06/16 07:38:18;;;;;;;5.28;2.20;;;;;;;36.77;16.88;101223.31;5081851;28;20085;-69
2021/06/16 07:40:46;;;;;;;5.35;2.20;;;;;;;35.89;17.47;101221.94;5064752;28;20082;-68
2021/06/16 07:43:15;;;;;;;6.57;1.83;;;;;;;36.49;17.18;101221.50;5072582;28;20048;-69
2021/06/16 07:45:43;;;;;;;5.07;1.77;;;;;;;36.54;17.33;101223.50;5056067;28;20055;-70
2021/06/16 07:48:10;;;;;;;5.90;1.90;;;;;;;36.05;17.48;101221.22;5074535;28;20047;-69
2021/06/16 07:50:38;;;;;;;6.50;1.92;;;;;;;35.60;18.36;101221.09;5075169;28;20508;-68
2021/06/16 07:53:06;;;;;;;5.43;1.80;;;;;;;36.31;17.67;101222.53;5061421;28;20052;-67
2021/06/16 07:55:34;;;;;;;3.47;1.70;;;;;;;36.42;17.66;101215.28;5071820;28;20055;-70
2021/06/16 07:58:03;;;;;;;5.82;2.00;;;;;;;36.73;17.97;101212.00;5078436;28;20044;-68
2021/06/16 08:00:31;;;;;;;4.40;1.80;;;;;;;35.96;18.13;101215.28;5079879;28;20404;-71
2021/06/16 08:02:59;;;;;;;6.20;1.80;;;;;;;35.56;19.04;101218.00;5065726;28;20040;-69
2021/06/16 08:05:26;;;;;;;4.78;1.70;;;;;;;36.92;17.73;101218.09;5052535;28;20446;-68
2021/06/16 08:07:54;;;;;;;5.75;1.58;;;;;;;36.53;17.97;101222.66;5068714;28;20044;-69
2021/06/16 08:10:21;;;;;;;7.85;2.10;;;;;;;36.15;18.11;101218.66;5071382;28;20079;-70
2021/06/16 08:12:49;;;;;;;8.88;1.77;;;;;;;36.16;18.59;101214.84;5079149;28;20048;-67
2021/06/16 08:15:17;;;;;;;4.90;2.30;;;;;;;36.34;18.30;101208.31;5061919;28;20047;-68
2021/06/16 08:17:44;;;;;;;5.13;1.90;;;;;;;35.79;18.70;101217.09;5078134;28;20097;-69
2021/06/16 08:20:12;;;;;;;8.05;1.77;;;;;;;35.88;18.88;101212.91;5074717;28;20053;-69
2021/06/16 08:22:40;;;;;;;5.55;1.70;;;;;;;34.01;21.05;101214.47;5082016;28;20059;-69
2021/06/16 08:25:11;;;;;;;9.02;2.03;;;;;;;35.46;19.82;101213.16;5072992;28;20555;-69
2021/06/16 08:27:42;;;;;;;6.38;2.20;;;;;;;35.54;19.23;101213.88;5065243;28;20056;-68
2021/06/16 08:30:11;;;;;;;3.75;1.75;;;;;;;34.79;20.12;101212.66;5069575;28;20048;-70
2021/06/16 08:32:40;;;;;;;5.95;2.13;;;;;;;33.30;21.82;101206.03;5074381;28;20052;-68
2021/06/16 08:35:09;;;;;;;3.28;1.60;;;;;;;31.14;24.12;101204.97;5048672;28;20060;-68
2021/06/16 08:37:36;;;;;;;7.32;1.70;;;;;;;29.52;26.73;101205.00;5077686;28;20051;-69
2021/06/16 08:40:05;;;;;;;4.00;1.45;;;;;;;28.91;27.38;101202.06;5074022;28;20040;-69
2021/06/16 08:42:33;;;;;;;5.78;2.13;;;;;;;28.14;28.32;101200.91;5081156;28;20040;-69
2021/06/16 08:45:02;;;;;;;4.90;1.55;;;;;;;26.87;30.47;101199.34;5057174;28;20052;-68
2021/06/16 08:47:29;;;;;;;4.65;1.23;;;;;;;26.21;31.49;101210.63;5072487;28;20052;-70
2021/06/16 08:49:58;;;;;;;4.15;1.35;;;;;;;26.20;32.31;101206.22;5076701;28;20036;-69
2021/06/16 08:52:26;;;;;;;7.30;2.15;;;;;;;26.06;32.25;101200.75;5074307;28;20059;-69
2021/06/16 08:54:53;;;;;;;5.82;1.55;;;;;;;25.89;32.30;101195.47;5075921;28;20053;-69
2021/06/16 08:57:21;;;;;;;4.68;1.48;;;;;;;25.21;33.15;101196.03;5066702;28;20073;-68
2021/06/16 08:59:50;;;;;;;4.45;1.40;;;;;;;24.97;33.68;101197.72;5085666;28;20063;-67
2021/06/16 09:02:17;;;;;;;11.32;1.67;;;;;;;24.88;34.45;101197.91;5069161;28;20458;-69
2021/06/16 09:04:50;;;;;;;6.25;1.35;;;;;;;24.60;33.86;101197.41;5072698;28;20053;-67
2021/06/16 09:07:21;;;;;;;8.68;1.77;;;;;;;24.65;34.59;101200.44;5072177;28;20048;-68
2021/06/16 09:09:50;;;;;;;15.43;1.80;;;;;;;24.37;34.99;101198.06;5073825;28;20048;-69
2021/06/16 09:12:30;;;;;;;7.35;1.52;;;;;;;24.67;34.83;101199.25;5062540;28;20446;-68
2021/06/16 09:14:57;;;;;;;9.52;1.60;;;;;;;24.50;35.22;101193.03;5066286;28;20044;-68
2021/06/16 09:17:25;;;;;;;5.72;1.60;;;;;;;24.28;35.79;101193.66;5078771;28;20174;-68
2021/06/16 09:19:58;;;;;;;11.80;5.68;;;;;;;24.47;35.79;101197.91;5068760;28;20531;-68
2021/06/16 09:22:40;;;;;;;9.48;4.03;;;;;;;24.82;34.75;101193.22;5084112;28;20193;-68
2021/06/16 09:25:11;;;;;;;4.15;2.22;;;;;;;25.05;34.67;101193.34;5088016;28;20056;-69
2021/06/16 09:27:44;;;;;;;5.00;2.33;;;;;;;25.14;33.68;101192.34;5078372;28;20105;-68
2021/06/16 09:30:23;;;;;;;5.65;2.17;;;;;;;25.14;34.02;101182.41;5084798;28;20048;-69
2021/06/16 09:32:56;;;;;;;7.90;2.13;;;;;;;25.24;33.79;101193.00;5075836;28;20060;-70
2021/06/16 09:35:25;;;;;;;10.32;1.83;;;;;;;24.84;34.27;101183.94;5079439;28;20060;-68
2021/06/16 09:37:53;;;;;;;7.55;2.15;;;;;;;24.70;34.50;101177.38;5068679;28;20041;-69
2021/06/16 09:40:37;;;;;;;4.10;2.03;;;;;;;25.04;33.56;101180.88;5085876;28;20040;-68
2021/06/16 09:43:07;;;;;;;7.65;1.85;;;;;;;25.38;32.71;101183.34;5072336;28;20067;-68
2021/06/16 09:45:35;;;;;;;4.45;1.90;;;;;;;25.05;33.02;101183.41;5078966;28;20064;-70
2021/06/16 09:48:25;;;;;;;7.30;2.50;;;;;;;25.47;32.03;101182.31;5060428;28;20056;-67
2021/06/16 09:50:54;;;;;;;2.88;1.70;;;;;;;25.61;32.26;101180.72;5064193;28;20053;-69
2021/06/16 09:53:21;;;;;;;5.60;1.77;;;;;;;25.52;32.26;101183.44;5056808;28;20256;-68
2021/06/16 09:55:48;;;;;;;3.78;1.75;;;;;;;25.33;31.88;101183.03;5066009;28;20048;-69
2021/06/16 09:58:19;;;;;;;5.75;2.00;;;;;;;25.15;32.11;101169.78;5075687;28;20052;-69
2021/06/16 10:00:48;;;;;;;6.47;2.00;;;;;;;25.54;31.94;101167.13;5067246;28;20048;-69
2021/06/16 10:03:18;;;;;;;3.67;1.38;;;;;;;25.38;31.41;101161.78;5082281;28;20514;-67
2021/06/16 10:06:03;;;;;;;4.03;1.40;;;;;;;25.32;31.43;101165.19;5079700;28;20103;-72
2021/06/16 10:08:32;;;;;;;5.15;1.92;;;;;;;25.07;31.66;101157.13;5085148;28;20048;-68
2021/06/16 10:11:00;;;;;;;5.35;1.50;;;;;;;24.90;32.09;101152.78;5074140;28;20127;-69
2021/06/16 10:13:28;;;;;;;12.75;7.03;;;;;;;25.17;32.50;101141.66;5073694;28;20048;-68
2021/06/16 10:15:57;;;;;;;7.88;3.17;;;;;;;25.44;32.05;101144.91;5056400;28;20394;-68
2021/06/16 10:18:25;;;;;;;4.00;1.52;;;;;;;25.75;31.67;101148.47;5077335;28;20048;-70
2021/06/16 10:20:55;;;;;;;5.00;2.17;;;;;;;25.21;32.14;101136.75;5058196;28;20144;-68
2021/06/16 10:23:23;;;;;;;4.97;1.70;;;;;;;25.23;31.93;101135.56;5067456;28;20054;-70
2021/06/16 10:25:51;;;;;;;6.50;2.17;;;;;;;25.23;31.91;101129.34;5058364;28;20056;-71
2021/06/16 10:28:32;;;;;;;2.33;1.25;;;;;;;25.38;31.83;101132.97;5070208;28;20085;-72
2021/06/16 10:30:59;;;;;;;4.20;1.30;;;;;;;25.60;31.61;101125.97;5070283;28;20048;-69
2021/06/16 10:33:38;;;;;;;5.50;2.75;;;;;;;25.52;32.05;101131.41;5064955;28;20048;-71
2021/06/16 10:36:21;;;;;;;3.72;1.63;;;;;;;25.46;32.08;101126.72;5063369;28;20094;-69
2021/06/16 10:38:58;;;;;;;4.55;1.45;;;;;;;25.48;31.69;101120.13;5085357;28;20122;-71
2021/06/16 10:41:37;;;;;;;6.13;2.00;;;;;;;25.38;32.17;101118.66;5073219;28;20040;-69
2021/06/16 10:44:12;;;;;;;6.00;1.60;;;;;;;25.31;32.20;101117.66;5066365;28;20530;-70
2021/06/16 10:46:59;;;;;;;4.70;1.45;;;;;;;25.19;33.02;101109.97;5072245;28;20044;-69
2021/06/16 10:49:33;;;;;;;5.72;1.58;;;;;;;25.56;32.62;101110.31;5069288;28;20577;-70
2021/06/16 10:52:00;;;;;;;3.08;1.50;;;;;;;25.72;32.25;101116.47;5079006;28;20396;-70
2021/06/16 10:54:30;;;;;;;7.03;1.67;;;;;;;25.79;32.12;101113.91;5073040;28;20102;-72
2021/06/16 10:57:07;;;;;;;7.15;1.48;;;;;;;25.98;32.64;101100.00;5061487;28;20044;-68
2021/06/16 10:59:43;;;;;;;6.78;1.63;;;;;;;25.64;32.29;101119.22;5077094;28;20058;-69
2021/06/16 11:02:16;;;;;;;7.35;1.50;;;;;;;25.56;32.49;101121.09;5067190;28;20045;-71
2021/06/16 11:04:45;;;;;;;5.07;1.90;;;;;;;25.55;32.54;101103.25;5067487;28;20558;-69
2021/06/16 11:07:30;;;;;;;6.47;1.80;;;;;;;25.51;32.33;101110.84;5074857;28;20376;-69
2021/06/16 11:09:58;;;;;;;9.13;1.45;;;;;;;25.51;32.10;101109.00;5075111;28;20102;-68
2021/06/16 11:12:33;;;;;;;4.95;1.48;;;;;;;25.57;31.89;101101.22;5072595;28;20052;-69
2021/06/16 11:15:02;;;;;;;4.55;1.60;;;;;;;25.50;32.01;101099.22;5079685;28;20052;-69
2021/06/16 11:17:29;;;;;;;6.25;2.10;;;;;;;25.79;31.96;101103.13;5049031;28;20047;-70
2021/06/16 11:19:56;;;;;;;7.00;2.72;;;;;;;25.69;31.68;101095.25;5084761;28;20053;-69
2021/06/16 11:22:27;;;;;;;6.72;1.95;;;;;;;25.70;32.08;101091.53;5077451;28;20071;-69
2021/06/16 11:25:04;;;;;;;3.17;1.35;;;;;;;25.81;31.87;101084.94;5070150;28;20114;-69
2021/06/16 11:27:51;;;;;;;5.50;1.55;;;;;;;25.22;33.26;101085.38;5060224;28;20098;-69
2021/06/16 11:30:29;;;;;;;6.55;1.60;;;;;;;25.22;33.22;101093.47;5065455;28;20063;-69
2021/06/16 11:33:11;;;;;;;5.45;1.48;;;;;;;25.22;33.04;101079.16;5065662;28;20044;-69
2021/06/16 11:35:40;;;;;;;9.82;1.63;;;;;;;25.30;32.91;101084.50;5074180;28;20527;-68